메인 페이지
METAR-TAF:

METAR-TAF

공항 :

Durant, 오클라호마, 미국

위도: 33-56-32N, 경도: 096-23-40W, 고도: 213m

현재 날씨관측

예보는 21분 전, 18:55시(UTC)에 발표되었습니다.
동남동7kt
온도 15°C
습도 100%
기압 1006 hPa
시정: 6.4km
고도 700ft 상공 흐림
이슬비

METAR: KDUA 131855Z AUTO 12007KT 4SM DZ OVC007 15/15 A2970 RMK AO2

시각: 13:16 (19:16 UTC)


TAF: 누락

4,000개 이상의 공항 관측 자료 및 예보 (METAR 및 TAF 보고).

지도상에서 검색 가능한 기상관측소가 노란 점과 빨간 점으로 표시되어 있습니다.

기상관측소 명을 보려면 표시 위로 마우스를 이동하세요.

날씨 관측과 예보를 보려면 클릭하세요.

지도 변경 : 확대하려면 엑스 표시가 있는 녹색 버튼, 축소하려면 빼기 표시가 있는 녹색 버튼, 다음 페이지의 지도를 보려면 녹색 화살표를 클릭하세요.


METAR-TAF: